Time;durP1;ratioP1;P1;durP2;ratioP2;P2;SDS_P1;SDS_P2;PMS_P1;PMS_P2;Temp;Humidity;BMP_temperature;BMP_pressure;BME280_temperature;BME280_humidity;BME280_pressure;Samples;Min_cycle;Max_cycle;Signal;HPM_P1;HPM_P2
2021/05/08 00:01:59;;;;;;;2.77;1.00;;;9.70;55.60;;;;;;4973791;28;20419;-81
2021/05/08 00:04:25;;;;;;;3.83;1.43;;;9.70;55.80;;;;;;4981420;28;20026;-81
2021/05/08 00:06:51;;;;;;;1.97;0.93;;;9.70;56.00;;;;;;4986580;28;20387;-81
2021/05/08 00:09:17;;;;;;;1.27;0.70;;;9.60;56.00;;;;;;5004584;28;20038;-81
2021/05/08 00:11:42;;;;;;;2.43;0.90;;;9.60;56.00;;;;;;4995883;28;20031;-81
2021/05/08 00:14:08;;;;;;;1.07;0.70;;;9.50;55.60;;;;;;4990240;28;20061;-81
2021/05/08 00:16:35;;;;;;;1.90;1.10;;;9.40;55.80;;;;;;4992949;28;20030;-80
2021/05/08 00:19:02;;;;;;;2.43;1.10;;;9.40;56.10;;;;;;4996057;28;20399;-81
2021/05/08 00:21:29;;;;;;;1.30;0.80;;;9.50;56.10;;;;;;4986383;28;20030;-81
2021/05/08 00:23:55;;;;;;;1.87;1.07;;;9.50;56.00;;;;;;4988725;28;20038;-80
2021/05/08 00:26:21;;;;;;;2.30;1.37;;;9.50;56.10;;;;;;4972311;28;20033;-81
2021/05/08 00:28:48;;;;;;;1.77;0.90;;;9.40;56.10;;;;;;4972004;28;20031;-80
2021/05/08 00:31:14;;;;;;;2.63;0.90;;;9.40;56.20;;;;;;4974685;28;20027;-81
2021/05/08 00:33:39;;;;;;;2.30;1.20;;;9.40;56.20;;;;;;5006220;28;20035;-80
2021/05/08 00:36:06;;;;;;;2.40;1.30;;;9.30;56.30;;;;;;4992159;28;20035;-81
2021/05/08 00:38:32;;;;;;;1.87;1.10;;;9.30;56.60;;;;;;4981578;28;20031;-81
2021/05/08 00:40:58;;;;;;;2.87;1.00;;;9.30;56.80;;;;;;4971754;28;20345;-81
2021/05/08 00:43:23;;;;;;;3.93;1.57;;;9.30;57.00;;;;;;4972871;28;20023;-80
2021/05/08 00:45:49;;;;;;;4.10;1.13;;;9.30;57.00;;;;;;4992255;28;20030;-81
2021/05/08 00:48:15;;;;;;;2.57;1.20;;;9.30;57.00;;;;;;4980749;28;20053;-81
2021/05/08 00:50:41;;;;;;;2.10;1.00;;;9.40;56.80;;;;;;4978374;28;20114;-81
2021/05/08 00:53:09;;;;;;;2.97;1.40;;;9.40;56.70;;;;;;4988645;28;20030;-81
2021/05/08 00:55:39;;;;;;;2.23;1.30;;;9.30;56.70;;;;;;5003133;28;20153;-81
2021/05/08 00:58:08;;;;;;;2.40;1.07;;;9.30;56.80;;;;;;4973297;28;20042;-81
2021/05/08 01:00:35;;;;;;;1.57;1.20;;;9.30;57.00;;;;;;4972897;28;20357;-81
2021/05/08 01:03:01;;;;;;;2.73;1.33;;;9.20;57.40;;;;;;4973841;28;20038;-81
2021/05/08 01:05:31;;;;;;;2.03;1.33;;;9.10;57.40;;;;;;4974165;28;20043;-80
2021/05/08 01:07:57;;;;;;;1.77;0.97;;;9.00;57.70;;;;;;4999729;28;20046;-81
2021/05/08 01:10:24;;;;;;;1.93;1.20;;;8.90;57.90;;;;;;4983070;28;20514;-80
2021/05/08 01:12:50;;;;;;;3.20;1.43;;;8.90;58.10;;;;;;4980462;28;20038;-80
2021/05/08 01:15:16;;;;;;;2.27;1.30;;;8.80;58.10;;;;;;4976778;28;20052;-80
2021/05/08 01:17:42;;;;;;;2.37;1.07;;;8.70;58.30;;;;;;5002100;28;20030;-80
2021/05/08 01:20:11;;;;;;;1.73;0.80;;;8.70;58.50;;;;;;5005132;28;20411;-80
2021/05/08 01:22:38;;;;;;;1.70;1.00;;;8.80;58.60;;;;;;5003791;28;20022;-81
2021/05/08 01:25:10;;;;;;;1.40;0.70;;;8.80;58.10;;;;;;4991882;28;20030;-80
2021/05/08 01:27:45;;;;;;;2.37;0.97;;;8.80;57.80;;;;;;4994938;28;20069;-81
2021/05/08 01:30:12;;;;;;;2.00;1.20;;;8.70;57.60;;;;;;5010967;28;20026;-81
2021/05/08 01:32:38;;;;;;;1.87;0.80;;;8.70;57.70;;;;;;5009645;28;20083;-81
2021/05/08 01:35:04;;;;;;;3.97;1.33;;;8.60;57.70;;;;;;4988341;28;20030;-80
2021/05/08 01:37:30;;;;;;;2.30;1.00;;;8.60;57.60;;;;;;5008865;28;20050;-81
2021/05/08 01:39:55;;;;;;;1.67;0.80;;;8.60;57.50;;;;;;4999116;28;20506;-81
2021/05/08 01:42:21;;;;;;;2.20;0.80;;;8.60;57.40;;;;;;5008843;28;20026;-81
2021/05/08 01:44:47;;;;;;;1.27;0.93;;;8.60;57.00;;;;;;5006859;28;20534;-81
2021/05/08 01:47:12;;;;;;;1.20;0.87;;;8.60;56.90;;;;;;4997893;28;20053;-81
2021/05/08 01:49:38;;;;;;;2.80;0.93;;;8.60;56.80;;;;;;4984084;28;20033;-81
2021/05/08 01:52:04;;;;;;;6.40;2.50;;;8.60;56.80;;;;;;4985268;28;20042;-81
2021/05/08 01:54:30;;;;;;;4.37;1.90;;;8.50;57.50;;;;;;5000576;28;20023;-81
2021/05/08 01:56:55;;;;;;;5.07;2.33;;;8.40;57.00;;;;;;4975142;28;20476;-80
2021/05/08 01:59:21;;;;;;;5.33;2.20;;;8.40;57.10;;;;;;4978714;28;20066;-80
2021/05/08 02:01:47;;;;;;;4.90;2.33;;;8.30;57.40;;;;;;4980377;28;20044;-81
2021/05/08 02:04:12;;;;;;;3.90;1.70;;;8.30;57.60;;;;;;4996792;28;20105;-81
2021/05/08 02:06:38;;;;;;;3.87;1.40;;;8.30;57.70;;;;;;4993864;28;20392;-81
2021/05/08 02:09:06;;;;;;;3.20;1.37;;;8.30;57.70;;;;;;4990862;28;20039;-81
2021/05/08 02:11:32;;;;;;;1.50;1.10;;;8.30;57.70;;;;;;4991152;28;20038;-82
2021/05/08 02:13:57;;;;;;;2.40;1.20;;;8.20;57.60;;;;;;4974829;28;20027;-81
2021/05/08 02:16:23;;;;;;;1.63;1.30;;;8.20;57.90;;;;;;4998284;28;20521;-81
2021/05/08 02:18:49;;;;;;;2.17;1.10;;;8.20;58.00;;;;;;4990102;28;20041;-81
2021/05/08 02:21:15;;;;;;;2.30;1.17;;;8.10;57.80;;;;;;4976336;28;20061;-81
2021/05/08 02:23:40;;;;;;;1.93;0.90;;;8.10;57.90;;;;;;4974463;28;20038;-81
2021/05/08 02:26:06;;;;;;;2.17;1.00;;;8.00;57.90;;;;;;4980779;28;20030;-81
2021/05/08 02:28:31;;;;;;;1.63;0.90;;;8.00;58.10;;;;;;4990668;28;20034;-81
2021/05/08 02:30:57;;;;;;;2.93;1.00;;;7.90;58.20;;;;;;4992564;28;20475;-81
2021/05/08 02:33:23;;;;;;;1.23;1.00;;;7.90;58.20;;;;;;4979283;28;20033;-81
2021/05/08 02:35:49;;;;;;;1.30;0.90;;;7.90;58.20;;;;;;4993077;28;20113;-80
2021/05/08 02:38:14;;;;;;;4.40;1.50;;;7.80;58.30;;;;;;4995235;28;20454;-80
2021/05/08 02:40:40;;;;;;;2.50;1.00;;;7.70;58.50;;;;;;4993980;28;20022;-80
2021/05/08 02:43:08;;;;;;;4.13;1.80;;;7.80;58.50;;;;;;5006513;28;20034;-80
2021/05/08 02:45:34;;;;;;;3.87;1.20;;;7.80;58.40;;;;;;5001407;28;20042;-80
2021/05/08 02:48:00;;;;;;;2.30;1.13;;;7.80;58.50;;;;;;4977791;28;20027;-80
2021/05/08 02:50:26;;;;;;;1.60;1.07;;;7.70;58.60;;;;;;4991783;28;20041;-80
2021/05/08 02:52:51;;;;;;;3.30;1.03;;;7.70;58.60;;;;;;4991713;28;20109;-79
2021/05/08 02:55:17;;;;;;;1.43;1.10;;;7.70;58.40;;;;;;4990186;28;20034;-80
2021/05/08 02:57:43;;;;;;;2.40;1.00;;;7.70;58.30;;;;;;4985153;28;20041;-80
2021/05/08 03:00:14;;;;;;;2.13;1.00;;;7.70;58.40;;;;;;5004909;28;20054;-80
2021/05/08 03:02:40;;;;;;;1.37;0.90;;;7.70;58.60;;;;;;4985702;28;20030;-80
2021/05/08 03:05:08;;;;;;;4.10;1.10;;;7.60;58.60;;;;;;4997433;28;20482;-80
2021/05/08 03:07:34;;;;;;;2.17;0.90;;;7.60;58.50;;;;;;5001682;28;20026;-80
2021/05/08 03:09:59;;;;;;;1.60;1.13;;;7.60;58.60;;;;;;4992579;28;20030;-80
2021/05/08 03:12:25;;;;;;;2.20;0.80;;;7.60;58.50;;;;;;4983137;28;20375;-80
2021/05/08 03:14:51;;;;;;;1.37;1.00;;;7.60;58.50;;;;;;4983314;28;20047;-80
2021/05/08 03:17:17;;;;;;;1.87;1.00;;;7.70;59.00;;;;;;5002458;28;20033;-80
2021/05/08 03:19:43;;;;;;;2.13;1.47;;;7.70;58.40;;;;;;4993187;28;20030;-80
2021/05/08 03:22:09;;;;;;;2.27;1.30;;;7.70;58.20;;;;;;5004667;28;20033;-80
2021/05/08 03:24:34;;;;;;;2.23;1.20;;;7.60;58.40;;;;;;4983209;28;20041;-80
2021/05/08 03:27:01;;;;;;;2.30;1.37;;;7.60;58.70;;;;;;4994076;28;20026;-80
2021/05/08 03:29:48;;;;;;;8.80;4.00;;;7.50;58.80;;;;;;4991344;28;20027;-80
2021/05/08 03:32:14;;;;;;;7.97;4.33;;;7.50;58.70;;;;;;4987514;28;20042;-80
2021/05/08 03:34:40;;;;;;;7.20;3.73;;;7.40;58.80;;;;;;5004470;28;20040;-80
2021/05/08 03:37:05;;;;;;;3.80;2.33;;;7.40;58.80;;;;;;4992759;28;20090;-80
2021/05/08 03:39:36;;;;;;;4.80;1.70;;;7.30;58.80;;;;;;5004225;28;20037;-80
2021/05/08 03:42:01;;;;;;;4.80;1.70;;;7.20;59.10;;;;;;5003117;28;20038;-80
2021/05/08 03:44:27;;;;;;;2.70;1.40;;;7.20;59.40;;;;;;4987925;28;20026;-80
2021/05/08 03:46:53;;;;;;;5.03;1.60;;;7.10;59.60;;;;;;4992724;28;20065;-80
2021/05/08 03:49:19;;;;;;;5.87;1.50;;;7.10;59.40;;;;;;4998509;28;20372;-80
2021/05/08 03:51:44;;;;;;;4.10;1.83;;;7.10;59.60;;;;;;5000782;28;20042;-80
2021/05/08 03:54:11;;;;;;;3.03;1.60;;;7.10;59.50;;;;;;4990205;28;20026;-80
2021/05/08 03:56:38;;;;;;;4.90;1.60;;;7.10;59.50;;;;;;4985983;28;20042;-80
2021/05/08 03:59:17;;;;;;;2.23;1.40;;;7.10;59.50;;;;;;4972516;28;20121;-80
2021/05/08 04:01:52;;;;;;;3.37;1.70;;;7.20;59.50;;;;;;4999056;28;20505;-80
2021/05/08 04:04:18;;;;;;;2.93;1.30;;;7.20;59.30;;;;;;4984863;28;20034;-80
2021/05/08 04:06:43;;;;;;;2.17;1.43;;;7.20;59.20;;;;;;4988222;28;20033;-80
2021/05/08 04:09:24;;;;;;;4.67;1.80;;;7.10;59.30;;;;;;4983751;28;20399;-80
2021/05/08 04:11:50;;;;;;;2.13;1.60;;;7.10;59.50;;;;;;4978529;28;20034;-80
2021/05/08 04:14:16;;;;;;;4.00;1.50;;;7.10;59.50;;;;;;4981213;28;20045;-80
2021/05/08 04:16:41;;;;;;;1.80;1.17;;;7.00;59.30;;;;;;4976082;28;20038;-80
2021/05/08 04:19:07;;;;;;;2.93;1.63;;;7.00;59.60;;;;;;4989381;28;20466;-80
2021/05/08 04:21:33;;;;;;;3.33;1.63;;;7.00;59.70;;;;;;4989502;28;20031;-80
2021/05/08 04:23:59;;;;;;;7.63;1.87;;;7.00;59.70;;;;;;5006265;28;20471;-80
2021/05/08 04:26:25;;;;;;;3.07;1.70;;;6.90;59.80;;;;;;4990916;28;20494;-80
2021/05/08 04:28:51;;;;;;;2.70;1.37;;;6.90;60.00;;;;;;4985055;28;20030;-80
2021/05/08 04:31:17;;;;;;;3.63;1.83;;;6.90;60.00;;;;;;5005653;28;20045;-80
2021/05/08 04:33:42;;;;;;;2.63;1.50;;;6.90;60.00;;;;;;4989213;28;20084;-80
2021/05/08 04:36:28;;;;;;;2.97;1.60;;;6.80;60.10;;;;;;4997181;28;20038;-80
2021/05/08 04:38:54;;;;;;;3.80;1.87;;;6.80;60.30;;;;;;4972472;28;20053;-80
2021/05/08 04:41:19;;;;;;;2.57;1.60;;;6.70;60.30;;;;;;4986352;28;20035;-80
2021/05/08 04:43:45;;;;;;;3.30;2.03;;;6.70;60.60;;;;;;4982238;28;20583;-80
2021/05/08 04:46:11;;;;;;;3.03;1.90;;;6.80;60.60;;;;;;5002703;28;20037;-80
2021/05/08 04:48:37;;;;;;;3.90;2.27;;;6.80;60.60;;;;;;5008446;28;20033;-80
2021/05/08 04:51:02;;;;;;;4.33;1.83;;;6.80;60.60;;;;;;4992814;28;20031;-80
2021/05/08 04:53:28;;;;;;;3.37;2.20;;;6.70;60.70;;;;;;4984424;28;20030;-80
2021/05/08 04:55:54;;;;;;;4.10;2.30;;;6.70;60.80;;;;;;4990424;28;20073;-80
2021/05/08 04:58:20;;;;;;;2.80;2.10;;;6.70;61.00;;;;;;4985229;28;20514;-80
2021/05/08 05:00:46;;;;;;;5.37;2.20;;;6.80;61.00;;;;;;4985088;28;20030;-80
2021/05/08 05:03:12;;;;;;;3.57;2.20;;;6.90;60.90;;;;;;4990842;28;20030;-80
2021/05/08 05:05:37;;;;;;;3.30;2.20;;;6.90;60.70;;;;;;4988307;28;20042;-80
2021/05/08 05:08:04;;;;;;;3.67;1.90;;;7.00;60.60;;;;;;4988293;28;20050;-80
2021/05/08 05:10:30;;;;;;;9.70;3.27;;;7.00;60.50;;;;;;4990577;28;20034;-80
2021/05/08 05:12:59;;;;;;;6.80;3.67;;;7.10;60.50;;;;;;4998136;28;20154;-80
2021/05/08 05:15:26;;;;;;;7.37;4.27;;;7.00;60.40;;;;;;4985007;28;20494;-80
2021/05/08 05:17:54;;;;;;;7.47;4.20;;;7.10;60.40;;;;;;4988336;28;20049;-80
2021/05/08 05:20:20;;;;;;;7.90;4.47;;;7.10;60.10;;;;;;4987593;28;20026;-80
2021/05/08 05:22:52;;;;;;;10.47;3.60;;;7.20;60.00;;;;;;4999832;28;20501;-80
2021/05/08 05:25:18;;;;;;;5.73;3.13;;;7.20;59.90;;;;;;4973261;28;20081;-80
2021/05/08 05:27:43;;;;;;;4.93;2.33;;;7.10;59.70;;;;;;4999803;28;20034;-80
2021/05/08 05:30:10;;;;;;;3.47;2.27;;;7.10;59.90;;;;;;4981992;28;20171;-80
2021/05/08 05:32:36;;;;;;;4.37;2.70;;;7.20;60.00;;;;;;4989513;28;20076;-80
2021/05/08 05:35:02;;;;;;;5.40;3.07;;;7.20;59.90;;;;;;4986808;28;20448;-80
2021/05/08 05:37:27;;;;;;;4.83;3.27;;;7.20;60.00;;;;;;4990063;28;20051;-80
2021/05/08 05:39:53;;;;;;;5.90;3.13;;;7.40;60.20;;;;;;4987660;28;20091;-80
2021/05/08 05:42:19;;;;;;;5.23;2.67;;;7.40;60.00;;;;;;4983516;28;20038;-80
2021/05/08 05:44:44;;;;;;;5.30;3.30;;;7.40;60.20;;;;;;4987915;28;20062;-80
2021/05/08 05:47:20;;;;;;;4.90;3.50;;;7.40;60.20;;;;;;4973163;28;20506;-80
2021/05/08 05:49:47;;;;;;;9.53;3.47;;;7.40;60.40;;;;;;4994903;28;20073;-81
2021/05/08 05:52:13;;;;;;;5.77;3.30;;;7.50;60.40;;;;;;4985988;28;20027;-81
2021/05/08 05:54:51;;;;;;;5.20;3.07;;;7.50;60.40;;;;;;4984947;28;20073;-81
2021/05/08 05:57:17;;;;;;;3.43;2.50;;;7.60;60.60;;;;;;5003732;28;20023;-80
2021/05/08 05:59:45;;;;;;;4.53;3.03;;;7.60;60.60;;;;;;4994553;28;20073;-80
2021/05/08 06:02:12;;;;;;;5.10;3.03;;;7.70;60.50;;;;;;4978429;28;20027;-80
2021/05/08 06:04:38;;;;;;;5.10;2.80;;;7.70;60.20;;;;;;4975284;28;20031;-81
2021/05/08 06:07:04;;;;;;;7.00;2.20;;;7.80;60.10;;;;;;4982452;28;20534;-80
2021/05/08 06:09:31;;;;;;;4.37;2.70;;;7.80;59.80;;;;;;4988645;28;20026;-80
2021/05/08 06:11:58;;;;;;;3.27;2.37;;;7.80;59.80;;;;;;4991496;28;20031;-80
2021/05/08 06:14:24;;;;;;;3.20;2.23;;;7.90;59.60;;;;;;4986213;28;20027;-80
2021/05/08 06:16:51;;;;;;;5.60;2.40;;;8.00;59.20;;;;;;4986076;28;20502;-80
2021/05/08 06:19:17;;;;;;;5.53;2.30;;;8.00;58.90;;;;;;4987054;28;20058;-80
2021/05/08 06:21:43;;;;;;;4.17;2.67;;;8.00;58.80;;;;;;5003669;28;20022;-80
2021/05/08 06:24:11;;;;;;;4.37;2.27;;;8.00;58.70;;;;;;4992363;28;20034;-80
2021/05/08 06:26:37;;;;;;;3.67;1.83;;;8.10;58.50;;;;;;4980457;28;20070;-80
2021/05/08 06:29:04;;;;;;;9.27;2.73;;;8.10;58.20;;;;;;4985806;28;20549;-80
2021/05/08 06:31:30;;;;;;;5.57;2.60;;;8.20;58.20;;;;;;4991980;28;20161;-80
2021/05/08 06:34:02;;;;;;;4.77;2.50;;;8.20;58.10;;;;;;5004232;28;20041;-80
2021/05/08 06:36:28;;;;;;;4.35;2.50;;;8.30;58.60;;;;;;4995748;28;20023;-80
2021/05/08 06:38:53;;;;;;;4.77;2.93;;;8.40;58.00;;;;;;4978776;28;20106;-80
2021/05/08 06:41:19;;;;;;;5.10;2.80;;;8.40;57.90;;;;;;4990261;28;20045;-80
2021/05/08 06:43:45;;;;;;;4.80;2.60;;;8.50;57.90;;;;;;4992962;28;20109;-80
2021/05/08 06:46:11;;;;;;;4.40;2.70;;;8.40;57.80;;;;;;5018650;28;20026;-80
2021/05/08 06:48:37;;;;;;;3.90;2.73;;;8.50;57.80;;;;;;5029740;28;20056;-80
2021/05/08 06:51:05;;;;;;;5.50;2.60;;;8.50;57.70;;;;;;4991581;28;20026;-80
2021/05/08 06:53:31;;;;;;;3.03;2.17;;;8.60;57.70;;;;;;4975517;28;20023;-80
2021/05/08 06:55:57;;;;;;;5.80;2.50;;;8.70;57.60;;;;;;4975704;28;20033;-80
2021/05/08 06:58:22;;;;;;;3.60;2.47;;;8.70;57.50;;;;;;4997593;28;20033;-80
2021/05/08 07:00:48;;;;;;;5.70;2.30;;;8.80;57.50;;;;;;4996275;28;20393;-80
2021/05/08 07:03:14;;;;;;;4.37;2.27;;;9.00;57.80;;;;;;4992743;28;20029;-81
2021/05/08 07:05:39;;;;;;;5.83;1.97;;;9.20;57.70;;;;;;4986606;28;20031;-81
2021/05/08 07:08:08;;;;;;;3.23;2.00;;;9.50;57.60;;;;;;4974330;28;20395;-81
2021/05/08 07:10:41;;;;;;;4.40;2.10;;;9.70;57.30;;;;;;4987404;28;20026;-81
2021/05/08 07:13:07;;;;;;;6.67;3.23;;;9.90;56.90;;;;;;4993450;28;20509;-81
2021/05/08 07:15:36;;;;;;;3.83;2.57;;;10.00;56.70;;;;;;5002179;28;20061;-81
2021/05/08 07:18:14;;;;;;;3.80;2.20;;;10.30;56.60;;;;;;5005432;28;20513;-81
2021/05/08 07:20:40;;;;;;;4.93;2.53;;;10.50;56.40;;;;;;4982422;28;20073;-81
2021/05/08 07:23:07;;;;;;;3.47;2.10;;;10.70;56.20;;;;;;4992952;28;20431;-81
2021/05/08 07:25:52;;;;;;;4.23;2.03;;;10.80;55.90;;;;;;4989929;28;20027;-81
2021/05/08 07:28:23;;;;;;;3.07;1.97;;;10.90;54.80;;;;;;5010763;28;20033;-81
2021/05/08 07:30:50;;;;;;;6.47;2.50;;;10.90;54.80;;;;;;4994255;28;20118;-81
2021/05/08 07:33:17;;;;;;;3.67;2.10;;;11.00;54.40;;;;;;5006038;28;20044;-81
2021/05/08 07:35:44;;;;;;;3.97;2.23;;;11.00;53.90;;;;;;4985756;28;20035;-81
2021/05/08 07:38:10;;;;;;;3.70;1.53;;;11.10;53.60;;;;;;4990851;28;20046;-81
2021/05/08 07:40:38;;;;;;;2.77;2.10;;;11.10;53.30;;;;;;4985322;28;20027;-81
2021/05/08 07:43:04;;;;;;;3.70;2.17;;;11.20;52.80;;;;;;4988676;28;20019;-81
2021/05/08 07:45:31;;;;;;;4.23;2.13;;;11.20;52.40;;;;;;4987557;28;20034;-81
2021/05/08 07:47:58;;;;;;;2.83;1.50;;;11.30;52.10;;;;;;4989494;28;20446;-81
2021/05/08 07:50:25;;;;;;;3.50;1.30;;;11.50;52.20;;;;;;4981314;28;20030;-81
2021/05/08 07:52:50;;;;;;;3.47;1.70;;;11.70;51.80;;;;;;4981216;28;20529;-81
2021/05/08 07:55:16;;;;;;;4.70;1.70;;;11.90;51.40;;;;;;4996268;28;20026;-80
2021/05/08 07:57:42;;;;;;;2.00;1.43;;;12.10;50.70;;;;;;4995151;28;20030;-80
2021/05/08 08:00:10;;;;;;;4.23;1.50;;;12.20;49.90;;;;;;4992657;28;20383;-81
2021/05/08 08:02:36;;;;;;;2.73;1.50;;;12.20;49.50;;;;;;4992574;28;20041;-79
2021/05/08 08:05:04;;;;;;;2.07;1.27;;;12.30;49.20;;;;;;4992619;28;20046;-79
2021/05/08 08:07:30;;;;;;;2.77;1.30;;;12.40;48.70;;;;;;4989449;28;20031;-79
2021/05/08 08:09:55;;;;;;;2.37;1.20;;;12.60;48.50;;;;;;4993731;28;20034;-79
2021/05/08 08:12:21;;;;;;;2.20;1.60;;;12.70;48.10;;;;;;4984970;28;20073;-79
2021/05/08 08:14:47;;;;;;;3.73;1.63;;;12.80;47.70;;;;;;4989073;28;20081;-80
2021/05/08 08:17:13;;;;;;;4.63;1.70;;;12.90;47.60;;;;;;4987601;28;20480;-79
2021/05/08 08:19:39;;;;;;;2.17;1.40;;;13.10;47.20;;;;;;4984054;28;20037;-79
2021/05/08 08:22:05;;;;;;;2.80;1.10;;;13.30;47.10;;;;;;4980046;28;20054;-80
2021/05/08 08:24:31;;;;;;;3.20;1.83;;;13.40;46.70;;;;;;4998882;28;20121;-80
2021/05/08 08:26:57;;;;;;;1.50;1.00;;;13.60;46.30;;;;;;4981036;28;20099;-80
2021/05/08 08:29:22;;;;;;;1.83;1.10;;;13.70;45.80;;;;;;4995971;28;20124;-80
2021/05/08 08:31:48;;;;;;;3.73;1.93;;;13.90;45.30;;;;;;4995899;28;20042;-80
2021/05/08 08:34:14;;;;;;;2.70;1.70;;;14.00;44.60;;;;;;4989543;28;20035;-80
2021/05/08 08:36:40;;;;;;;2.37;1.00;;;14.30;44.10;;;;;;4981108;28;20054;-80
2021/05/08 08:39:06;;;;;;;2.23;1.37;;;14.30;43.70;;;;;;4994730;28;20105;-80
2021/05/08 08:41:33;;;;;;;1.57;0.90;;;14.40;43.70;;;;;;4998743;28;20053;-80
2021/05/08 08:43:59;;;;;;;1.30;0.83;;;14.50;43.00;;;;;;4989425;28;20048;-80
2021/05/08 08:46:25;;;;;;;2.13;0.80;;;14.50;43.10;;;;;;4987420;28;20380;-80
2021/05/08 08:48:51;;;;;;;1.10;0.80;;;14.70;43.30;;;;;;4995830;28;20113;-80
2021/05/08 08:51:18;;;;;;;2.03;0.90;;;14.90;43.70;;;;;;4997155;28;20035;-80
2021/05/08 08:53:44;;;;;;;3.03;0.90;;;15.00;43.30;;;;;;4980212;28;20035;-80
2021/05/08 08:56:13;;;;;;;1.73;0.73;;;15.20;43.70;;;;;;4980193;28;20037;-80
2021/05/08 08:58:42;;;;;;;2.27;0.80;;;15.40;43.40;;;;;;5004763;28;20030;-80
2021/05/08 09:01:08;;;;;;;1.03;0.67;;;15.50;43.00;;;;;;4993605;28;20444;-80
2021/05/08 09:03:34;;;;;;;4.00;1.27;;;15.80;42.70;;;;;;4995727;28;20027;-80
2021/05/08 09:06:00;;;;;;;3.22;0.77;;;15.90;42.30;;;;;;4990177;28;20373;-80
2021/05/08 09:08:29;;;;;;;1.88;0.88;;;16.00;42.00;;;;;;4987049;28;20377;-80
2021/05/08 09:11:17;;;;;;;1.67;0.98;;;16.20;41.90;;;;;;4990957;28;20038;-80
2021/05/08 09:13:43;;;;;;;2.08;1.13;;;16.20;41.70;;;;;;5003957;28;20026;-80
2021/05/08 09:16:09;;;;;;;2.75;0.93;;;16.30;41.70;;;;;;4992811;28;20034;-80
2021/05/08 09:18:40;;;;;;;1.70;0.90;;;16.40;41.40;;;;;;4995674;28;20049;-80
2021/05/08 09:21:08;;;;;;;1.50;0.80;;;16.50;41.10;;;;;;4983627;28;20022;-80
2021/05/08 09:23:40;;;;;;;1.20;0.80;;;16.60;41.00;;;;;;4974759;28;20101;-80
2021/05/08 09:26:11;;;;;;;2.07;1.03;;;16.60;40.50;;;;;;4980334;28;20023;-80
2021/05/08 09:28:39;;;;;;;2.38;1.10;;;16.60;40.70;;;;;;4991365;28;20026;-80
2021/05/08 09:31:07;;;;;;;3.35;1.17;;;16.80;40.60;;;;;;4988797;28;20367;-80
2021/05/08 09:33:34;;;;;;;1.48;0.98;;;16.90;40.50;;;;;;4978978;28;20077;-80
2021/05/08 09:36:00;;;;;;;1.75;0.73;;;16.90;40.50;;;;;;4996842;28;20088;-80
2021/05/08 09:38:40;;;;;;;1.83;0.80;;;17.00;40.30;;;;;;5003859;28;20096;-80
2021/05/08 09:41:08;;;;;;;1.10;0.77;;;17.20;39.70;;;;;;4994770;28;20026;-80
2021/05/08 09:43:34;;;;;;;1.60;0.98;;;17.20;39.40;;;;;;4994977;28;20428;-80
2021/05/08 09:46:00;;;;;;;2.13;0.70;;;17.40;39.10;;;;;;4981875;28;20041;-80
2021/05/08 09:48:30;;;;;;;2.83;1.15;;;17.40;38.50;;;;;;4995956;28;20030;-80
2021/05/08 09:51:15;;;;;;;1.45;0.70;;;17.60;38.20;;;;;;4989274;28;20037;-80
2021/05/08 09:53:41;;;;;;;2.60;0.60;;;17.70;37.50;;;;;;4998651;28;20022;-80
2021/05/08 09:56:40;;;;;;;3.28;1.23;;;17.70;37.20;;;;;;4991194;28;20085;-80
2021/05/08 09:59:38;;;;;;;6.35;0.80;;;17.80;37.20;;;;;;4981188;28;20042;-80
2021/05/08 10:02:04;;;;;;;3.55;0.90;;;17.90;37.60;;;;;;5006284;28;20502;-80
2021/05/08 10:04:37;;;;;;;3.08;0.90;;;18.00;37.30;;;;;;4996392;28;20031;-80
2021/05/08 10:07:06;;;;;;;;;;;18.20;37.40;;;;;;4991490;28;20024;-83
2021/05/08 10:09:33;;;;;;;3.30;0.70;;;18.30;37.70;;;;;;4999710;28;20000;-83
2021/05/08 10:12:03;;;;;;;0.93;0.50;;;18.40;37.40;;;;;;4981117;28;20026;-83
2021/05/08 10:14:31;;;;;;;2.60;0.75;;;18.60;37.00;;;;;;4992889;28;20037;-83
2021/05/08 10:17:00;;;;;;;1.02;0.50;;;18.60;36.80;;;;;;5011656;28;20037;-83
2021/05/08 10:19:30;;;;;;;2.20;0.60;;;18.70;36.60;;;;;;4996098;28;20037;-83
2021/05/08 10:21:57;;;;;;;1.60;0.90;;;18.80;36.20;;;;;;5009221;28;20030;-83
2021/05/08 10:24:25;;;;;;;1.65;0.80;;;18.90;36.20;;;;;;4993548;28;20030;-83
2021/05/08 10:26:59;;;;;;;0.80;0.80;;;19.00;36.20;;;;;;5008910;28;20495;-83
2021/05/08 10:29:31;;;;;;;3.53;0.90;;;19.20;36.00;;;;;;5011514;28;20027;-83
2021/05/08 10:32:00;;;;;;;2.28;0.85;;;19.30;35.70;;;;;;5007433;28;20034;-83
2021/05/08 10:34:32;;;;;;;1.13;0.63;;;19.40;35.40;;;;;;4985201;28;20034;-83
2021/05/08 10:37:07;;;;;;;2.97;0.88;;;19.40;35.00;;;;;;5001613;28;20054;-83
2021/05/08 10:40:07;;;;;;;1.65;0.98;;;19.50;34.80;;;;;;5009914;28;20476;-83
2021/05/08 10:42:47;;;;;;;3.72;1.00;;;19.50;34.70;;;;;;4993628;28;20543;-83
2021/05/08 10:45:14;;;;;;;1.52;0.70;;;19.50;34.70;;;;;;4976532;28;20082;-83
2021/05/08 10:47:55;;;;;;;1.13;0.82;;;19.50;34.60;;;;;;4996307;28;20026;-83
2021/05/08 10:50:28;;;;;;;2.20;0.70;;;19.60;34.40;;;;;;5007728;28;20022;-83
2021/05/08 10:53:17;;;;;;;1.35;1.00;;;19.70;33.90;;;;;;4986312;28;20030;-83
2021/05/08 10:55:48;;;;;;;3.67;0.80;;;19.80;33.60;;;;;;4976461;28;20027;-83
2021/05/08 10:58:14;;;;;;;2.35;0.88;;;19.90;33.50;;;;;;4990414;28;20118;-83
2021/05/08 11:01:00;;;;;;;1.17;0.75;;;20.00;33.30;;;;;;4995203;28;20146;-83
2021/05/08 11:03:30;;;;;;;1.05;0.70;;;20.10;32.60;;;;;;4974750;28;20053;-83
2021/05/08 11:06:07;;;;;;;1.55;0.95;;;20.10;31.80;;;;;;4983215;28;20069;-83
2021/05/08 11:08:33;;;;;;;3.33;0.60;;;20.10;32.50;;;;;;4998177;28;20026;-83
2021/05/08 11:11:03;;;;;;;0.80;0.52;;;20.20;31.40;;;;;;4979981;28;20057;-82
2021/05/08 11:13:41;;;;;;;2.45;0.80;;;20.10;31.40;;;;;;5011159;28;20057;-83
2021/05/08 11:16:12;;;;;;;3.75;0.98;;;20.20;31.70;;;;;;4997399;28;20517;-83
2021/05/08 11:18:44;;;;;;;2.90;0.90;;;20.20;31.60;;;;;;5000808;28;20531;-83
2021/05/08 11:21:18;;;;;;;3.88;1.02;;;20.20;31.10;;;;;;4996438;28;20029;-83
2021/05/08 11:23:49;;;;;;;3.45;1.00;;;20.30;30.90;;;;;;4976231;28;20061;-83
2021/05/08 11:26:24;;;;;;;1.23;0.75;;;20.30;31.00;;;;;;4992597;28;20094;-83
2021/05/08 11:28:58;;;;;;;3.90;0.85;;;20.50;30.70;;;;;;4991784;28;20018;-83
2021/05/08 11:31:37;;;;;;;2.78;0.60;;;20.60;30.70;;;;;;4986817;28;20053;-83
2021/05/08 11:34:12;;;;;;;4.00;0.73;;;20.70;30.10;;;;;;4981763;28;20042;-84
2021/05/08 11:37:09;;;;;;;1.02;0.50;;;20.80;29.60;;;;;;4987181;28;20065;-82
2021/05/08 11:39:45;;;;;;;1.08;0.75;;;20.80;29.60;;;;;;4978580;28;20038;-82
2021/05/08 11:42:25;;;;;;;1.17;0.60;;;20.90;29.60;;;;;;4979759;28;20050;-82
2021/05/08 11:44:57;;;;;;;2.97;0.60;;;20.90;29.40;;;;;;4974092;28;20059;-82
2021/05/08 11:47:27;;;;;;;1.17;0.63;;;21.00;29.60;;;;;;4975188;28;20106;-82
2021/05/08 11:50:01;;;;;;;2.15;0.60;;;21.10;29.30;;;;;;4973545;28;20032;-82
2021/05/08 11:52:39;;;;;;;1.65;0.77;;;21.10;28.90;;;;;;4990138;28;20031;-82
2021/05/08 11:55:13;;;;;;;1.00;0.50;;;21.20;28.50;;;;;;4974106;28;20468;-83
2021/05/08 11:57:43;;;;;;;1.30;0.70;;;21.20;28.20;;;;;;4990630;28;20459;-82
2021/05/08 12:00:23;;;;;;;4.20;0.70;;;21.20;28.40;;;;;;5000638;28;20121;-82
2021/05/08 12:02:51;;;;;;;0.68;0.60;;;21.30;28.10;;;;;;4996493;28;20073;-82
2021/05/08 12:05:23;;;;;;;1.90;0.80;;;21.30;28.30;;;;;;5001048;28;20029;-83
2021/05/08 12:07:49;;;;;;;1.27;0.80;;;21.40;28.30;;;;;;4981866;28;20035;-83
2021/05/08 12:10:20;;;;;;;1.45;0.60;;;21.50;28.40;;;;;;4986279;28;20511;-83
2021/05/08 12:12:47;;;;;;;2.63;0.45;;;21.60;28.40;;;;;;4991631;28;20113;-83
2021/05/08 12:15:22;;;;;;;1.88;0.70;;;21.60;28.70;;;;;;4994450;28;20041;-83
2021/05/08 12:17:51;;;;;;;1.20;0.57;;;21.60;28.50;;;;;;4989496;28;20053;-82
2021/05/08 12:20:22;;;;;;;1.90;0.80;;;21.60;28.70;;;;;;4992812;28;20025;-82
2021/05/08 12:22:49;;;;;;;1.42;0.68;;;21.60;28.60;;;;;;4991547;28;20027;-82
2021/05/08 12:25:23;;;;;;;1.33;0.60;;;21.70;28.80;;;;;;4988414;28;20061;-82
2021/05/08 12:28:09;;;;;;;0.88;0.50;;;21.70;28.50;;;;;;4985440;28;20027;-82
2021/05/08 12:30:35;;;;;;;1.88;0.90;;;21.80;28.50;;;;;;4986085;28;20483;-82
2021/05/08 12:33:01;;;;;;;0.68;0.50;;;21.80;28.30;;;;;;5004928;28;20034;-81
2021/05/08 12:35:27;;;;;;;1.17;0.80;;;21.80;28.30;;;;;;5002028;28;20031;-81
2021/05/08 12:37:52;;;;;;;1.40;0.60;;;21.80;28.10;;;;;;5000821;28;20082;-81
2021/05/08 12:40:32;;;;;;;1.35;0.63;;;21.90;28.20;;;;;;5011562;28;20093;-81
2021/05/08 12:42:58;;;;;;;1.10;0.50;;;22.00;27.10;;;;;;4996736;28;20110;-81
2021/05/08 12:45:24;;;;;;;2.45;0.50;;;21.90;27.40;;;;;;5004046;28;20055;-81
2021/05/08 12:47:49;;;;;;;2.67;0.40;;;21.90;27.50;;;;;;4995803;28;20037;-81
2021/05/08 12:50:25;;;;;;;1.00;0.40;;;21.90;26.90;;;;;;4974743;28;20049;-81
2021/05/08 12:53:01;;;;;;;1.35;0.60;;;21.90;26.90;;;;;;4995551;28;20038;-81
2021/05/08 12:55:28;;;;;;;1.13;0.40;;;21.90;26.50;;;;;;5004763;28;20495;-81
2021/05/08 12:58:05;;;;;;;2.67;0.77;;;21.80;25.80;;;;;;5000642;28;20399;-81
2021/05/08 13:00:38;;;;;;;1.27;0.50;;;21.70;25.40;;;;;;4989313;28;20018;-81